createdAt,value
2023-05-22T00:02:39.084Z,16.90
2023-05-22T00:06:44.109Z,16.80
2023-05-22T00:10:45.878Z,16.80
2023-05-22T00:14:47.652Z,16.70
2023-05-22T00:18:49.721Z,16.70
2023-05-22T00:22:52.779Z,16.60
2023-05-22T00:26:54.682Z,16.50
2023-05-22T00:30:56.552Z,16.50
2023-05-22T00:34:58.399Z,16.50
2023-05-22T00:39:00.156Z,16.40
2023-05-22T00:43:08.515Z,16.30
2023-05-22T00:47:10.561Z,16.20
2023-05-22T00:51:12.383Z,16.20
2023-05-22T00:55:14.474Z,16.20
2023-05-22T00:59:17.033Z,16.10
2023-05-22T01:03:19.606Z,16.00
2023-05-22T01:07:21.697Z,16.00
2023-05-22T01:11:28.429Z,15.90
2023-05-22T01:15:46.777Z,15.90
2023-05-22T01:20:06.943Z,15.90
2023-05-22T01:24:33.127Z,15.80
2023-05-22T01:28:52.626Z,15.80
2023-05-22T01:32:54.844Z,15.70
2023-05-22T01:36:56.698Z,15.70
2023-05-22T01:40:58.540Z,15.60
2023-05-22T01:45:00.324Z,15.70
2023-05-22T01:49:02.109Z,15.60
2023-05-22T01:53:24.843Z,15.60
2023-05-22T01:57:33.010Z,15.50
2023-05-22T02:01:41.302Z,15.50
2023-05-22T02:05:49.194Z,15.40
2023-05-22T02:10:04.215Z,15.40
2023-05-22T02:14:12.248Z,15.40
2023-05-22T02:18:14.209Z,15.30
2023-05-22T02:22:22.198Z,15.20
2023-05-22T02:26:24.155Z,15.20
2023-05-22T02:30:26.018Z,15.10
2023-05-22T02:34:27.804Z,15.00
2023-05-22T02:38:29.565Z,14.90
2023-05-22T02:42:31.444Z,14.90
2023-05-22T02:46:33.364Z,14.90
2023-05-22T02:50:35.348Z,14.90
2023-05-22T02:54:37.184Z,14.80
2023-05-22T02:58:39.593Z,14.80
2023-05-22T03:02:41.334Z,14.80
2023-05-22T03:06:46.343Z,14.80
2023-05-22T03:10:48.474Z,14.80
2023-05-22T03:14:50.545Z,14.80
2023-05-22T03:19:13.834Z,14.90
2023-05-22T03:23:15.741Z,14.90
2023-05-22T03:27:17.539Z,15.10
2023-05-22T03:31:19.339Z,15.20
2023-05-22T03:35:21.244Z,15.40
2023-05-22T03:39:23.025Z,15.80
2023-05-22T03:43:24.778Z,16.10
2023-05-22T03:47:26.655Z,16.70
2023-05-22T03:51:28.454Z,17.60
2023-05-22T03:55:30.912Z,18.10
2023-05-22T03:59:32.638Z,19.00
2023-05-22T04:03:34.455Z,19.40
2023-05-22T04:07:36.611Z,19.50
2023-05-22T04:11:42.672Z,20.20
2023-05-22T04:20:19.138Z,22.50
2023-05-22T04:29:18.457Z,23.70
2023-05-22T04:33:22.455Z,24.30
2023-05-22T04:37:26.642Z,24.30
2023-05-22T04:41:30.816Z,23.80
2023-05-22T04:45:35.633Z,24.10
2023-05-22T04:49:39.194Z,25.00
2023-05-22T04:53:41.161Z,25.40
2023-05-22T04:57:45.792Z,25.40
2023-05-22T05:01:47.926Z,25.70
2023-05-22T05:05:49.744Z,25.30
2023-05-22T05:09:51.984Z,25.50
2023-05-22T05:13:54.136Z,25.60
2023-05-22T05:17:56.290Z,26.00
2023-05-22T05:21:58.230Z,26.30
2023-05-22T05:26:33.218Z,26.70
2023-05-22T05:30:44.349Z,26.80
2023-05-22T05:34:46.421Z,26.80
2023-05-22T05:38:48.297Z,26.70
2023-05-22T05:42:50.333Z,26.60
2023-05-22T05:46:52.678Z,26.30
2023-05-22T05:50:54.488Z,26.40
2023-05-22T05:54:56.342Z,26.20
2023-05-22T05:58:58.162Z,26.30
2023-05-22T06:03:00.013Z,26.80
2023-05-22T06:07:03.090Z,27.10
2023-05-22T06:11:07.430Z,26.90
2023-05-22T06:19:52.040Z,27.90
2023-05-22T06:23:53.893Z,28.20
2023-05-22T06:27:55.951Z,28.60
2023-05-22T06:31:57.752Z,28.80
2023-05-22T06:35:59.679Z,29.10
2023-05-22T06:40:01.815Z,29.10
2023-05-22T06:44:03.911Z,28.90
2023-05-22T06:48:06.374Z,29.50
2023-05-22T06:52:16.352Z,30.20
2023-05-22T06:56:18.882Z,29.90
2023-05-22T07:00:21.986Z,30.30
2023-05-22T07:04:24.061Z,30.90
2023-05-22T07:08:28.356Z,31.20
2023-05-22T07:12:31.581Z,31.60
2023-05-22T07:16:33.564Z,32.70
2023-05-22T07:20:35.731Z,32.50
2023-05-22T07:24:37.702Z,32.90
2023-05-22T07:28:41.868Z,33.50
2023-05-22T07:32:43.675Z,35.80
2023-05-22T07:36:45.866Z,34.60
2023-05-22T07:40:50.772Z,33.20
2023-05-22T07:44:52.678Z,33.00
2023-05-22T07:48:54.525Z,32.00
2023-05-22T07:52:56.584Z,31.10
2023-05-22T07:56:58.426Z,32.50
2023-05-22T08:01:02.997Z,31.40
2023-05-22T08:05:05.584Z,31.50
2023-05-22T08:09:07.514Z,31.00
2023-05-22T08:13:10.135Z,30.70
2023-05-22T08:17:12.224Z,31.20
2023-05-22T08:21:14.020Z,31.00
2023-05-22T08:25:16.168Z,31.60
2023-05-22T08:29:18.793Z,32.90
2023-05-22T08:33:20.739Z,32.50
2023-05-22T08:37:22.503Z,33.10
2023-05-22T08:41:24.226Z,32.50
2023-05-22T08:45:26.315Z,32.30
2023-05-22T08:49:28.165Z,32.10
2023-05-22T08:53:34.186Z,31.90
2023-05-22T08:57:36.029Z,31.90
2023-05-22T09:01:37.912Z,31.50
2023-05-22T09:05:42.499Z,32.10
2023-05-22T09:09:44.375Z,32.90
2023-05-22T09:13:46.635Z,31.50
2023-05-22T09:17:48.421Z,32.70
2023-05-22T09:21:50.910Z,33.80
2023-05-22T09:25:57.508Z,34.40
2023-05-22T09:29:59.302Z,33.80
2023-05-22T09:34:01.500Z,33.10
2023-05-22T09:38:34.492Z,33.30
2023-05-22T09:42:40.467Z,33.40
2023-05-22T09:46:57.004Z,32.20
2023-05-22T09:51:09.248Z,31.30
2023-05-22T09:55:16.976Z,29.80
2023-05-22T09:59:46.232Z,30.20
2023-05-22T10:04:24.511Z,30.40
2023-05-22T10:08:28.678Z,29.70
2023-05-22T10:12:32.948Z,29.20
2023-05-22T10:16:40.367Z,29.40
2023-05-22T10:20:42.311Z,29.10
2023-05-22T10:24:46.369Z,28.90
2023-05-22T10:28:53.407Z,28.90
2023-05-22T10:33:06.368Z,29.00
2023-05-22T10:37:24.140Z,28.60
2023-05-22T10:41:27.091Z,28.80
2023-05-22T10:45:32.042Z,28.60
2023-05-22T10:49:33.891Z,28.00
2023-05-22T10:53:36.163Z,28.10
2023-05-22T10:57:38.482Z,28.10
2023-05-22T11:01:40.633Z,27.70
2023-05-22T11:05:42.554Z,27.50
2023-05-22T11:09:47.791Z,27.80
2023-05-22T11:13:52.437Z,27.80
2023-05-22T11:17:55.513Z,28.10
2023-05-22T11:22:00.672Z,28.20
2023-05-22T11:26:22.755Z,28.30
2023-05-22T11:30:33.589Z,27.80
2023-05-22T11:34:38.479Z,27.80
2023-05-22T11:38:42.189Z,28.30
2023-05-22T11:42:44.196Z,28.20
2023-05-22T11:46:47.077Z,28.10
2023-05-22T11:50:49.053Z,28.10
2023-05-22T11:54:52.211Z,27.90
2023-05-22T11:58:54.042Z,27.70
2023-05-22T12:02:55.964Z,27.60
2023-05-22T12:06:57.838Z,27.70
2023-05-22T12:10:59.800Z,28.10
2023-05-22T12:15:01.731Z,28.10
2023-05-22T12:19:10.559Z,27.70
2023-05-22T12:23:20.786Z,27.60
2023-05-22T12:27:22.839Z,27.80
2023-05-22T12:31:25.096Z,27.80
2023-05-22T12:35:29.194Z,27.70
2023-05-22T12:39:39.721Z,27.80
2023-05-22T12:43:52.712Z,28.20
2023-05-22T12:47:54.682Z,27.60
2023-05-22T12:51:56.525Z,28.10
2023-05-22T12:56:01.207Z,28.30
2023-05-22T13:00:04.693Z,28.40
2023-05-22T13:04:08.780Z,28.80
2023-05-22T13:08:10.635Z,28.80
2023-05-22T13:12:21.426Z,28.80
2023-05-22T13:16:23.636Z,28.90
2023-05-22T13:20:28.289Z,28.60
2023-05-22T13:24:30.151Z,28.80
2023-05-22T13:28:34.162Z,28.20
2023-05-22T13:32:36.091Z,28.80
2023-05-22T13:36:38.054Z,28.30
2023-05-22T13:40:39.894Z,28.40
2023-05-22T13:44:41.671Z,28.60
2023-05-22T13:48:44.032Z,28.80
2023-05-22T13:52:45.818Z,28.60
2023-05-22T13:56:50.091Z,28.50
2023-05-22T14:00:51.879Z,28.20
2023-05-22T14:04:56.764Z,28.50
2023-05-22T14:08:59.158Z,28.50
2023-05-22T14:13:00.931Z,28.60
2023-05-22T14:17:08.717Z,28.80
2023-05-22T14:22:48.049Z,28.30
2023-05-22T14:25:57.371Z,28.10
2023-05-22T14:30:19.661Z,28.10
2023-05-22T14:39:08.913Z,28.20
2023-05-22T14:43:14.042Z,28.20
2023-05-22T14:47:16.042Z,28.20
2023-05-22T14:51:36.431Z,28.10
2023-05-22T14:55:41.373Z,28.00
2023-05-22T14:59:43.404Z,28.10
2023-05-22T15:03:50.055Z,27.90
2023-05-22T15:08:02.312Z,28.10
2023-05-22T15:12:04.256Z,27.70
2023-05-22T15:16:06.074Z,28.10
2023-05-22T15:20:09.295Z,28.00
2023-05-22T15:24:11.806Z,27.80
2023-05-22T15:28:13.538Z,27.40
2023-05-22T15:32:23.897Z,27.60
2023-05-22T15:36:27.479Z,27.40
2023-05-22T15:40:29.445Z,27.40
2023-05-22T15:44:31.455Z,27.40
2023-05-22T15:48:41.559Z,27.40
2023-05-22T15:52:45.839Z,27.10
2023-05-22T15:56:57.113Z,26.90
2023-05-22T16:00:59.804Z,26.70
2023-05-22T16:05:01.970Z,26.70
2023-05-22T16:09:04.543Z,26.60
2023-05-22T16:13:06.496Z,26.50
2023-05-22T16:17:11.511Z,26.40
2023-05-22T16:21:13.496Z,26.40
2023-05-22T16:25:25.668Z,26.40
2023-05-22T16:29:27.539Z,26.10
2023-05-22T16:33:29.485Z,26.00
2023-05-22T16:37:31.744Z,26.00
2023-05-22T16:41:34.177Z,25.80
2023-05-22T16:45:36.272Z,25.70
2023-05-22T16:49:39.661Z,25.60
2023-05-22T16:53:44.164Z,25.50
2023-05-22T16:57:46.930Z,25.40
2023-05-22T17:01:49.105Z,25.40
2023-05-22T17:05:51.368Z,25.40
2023-05-22T17:09:53.258Z,25.30
2023-05-22T17:13:59.670Z,25.10
2023-05-22T17:18:05.747Z,24.90
2023-05-22T17:22:10.452Z,24.80
2023-05-22T17:26:13.087Z,24.70
2023-05-22T17:30:17.515Z,24.60
2023-05-22T17:34:21.971Z,24.40
2023-05-22T17:38:28.952Z,24.30
2023-05-22T17:42:33.870Z,24.20
2023-05-22T17:46:50.855Z,24.10
2023-05-22T17:51:23.938Z,24.10
2023-05-22T17:55:54.383Z,24.10
2023-05-22T18:00:35.597Z,24.00
2023-05-22T18:05:35.503Z,23.90
2023-05-22T18:10:27.684Z,23.80
2023-05-22T18:14:34.776Z,23.70
2023-05-22T18:18:53.395Z,23.70
2023-05-22T18:22:56.897Z,23.60
2023-05-22T18:26:58.874Z,23.40
2023-05-22T18:31:04.255Z,23.40
2023-05-22T18:35:12.351Z,23.20
2023-05-22T18:39:17.653Z,23.20
2023-05-22T18:43:25.118Z,23.10
2023-05-22T18:47:28.866Z,23.00
2023-05-22T18:51:34.197Z,22.90
2023-05-22T18:55:43.579Z,22.80
2023-05-22T19:00:02.155Z,22.70
2023-05-22T19:04:15.231Z,22.60
2023-05-22T19:08:29.721Z,22.50
2023-05-22T19:12:58.280Z,22.40
2023-05-22T19:17:05.687Z,22.30
2023-05-22T19:21:08.836Z,22.20
2023-05-22T19:25:13.199Z,22.10
2023-05-22T19:29:30.279Z,22.00
2023-05-22T19:33:37.699Z,21.90
2023-05-22T19:37:43.605Z,21.80
2023-05-22T19:41:48.509Z,21.70
2023-05-22T19:46:08.998Z,21.70
2023-05-22T19:50:11.959Z,21.60
2023-05-22T19:54:13.807Z,21.50
2023-05-22T19:58:17.840Z,21.50
2023-05-22T20:02:19.668Z,21.40
2023-05-22T20:06:22.237Z,21.30
2023-05-22T20:10:25.921Z,21.30
2023-05-22T20:14:27.737Z,21.20
2023-05-22T20:18:32.126Z,21.20
2023-05-22T20:22:33.953Z,21.10
2023-05-22T20:26:35.806Z,21.10
2023-05-22T20:30:37.626Z,20.90
2023-05-22T20:34:40.163Z,20.90
2023-05-22T20:38:45.367Z,20.90
2023-05-22T20:42:47.626Z,20.80
2023-05-22T20:46:50.343Z,20.70
2023-05-22T20:50:52.332Z,20.70
2023-05-22T20:54:54.058Z,20.60
2023-05-22T20:58:56.282Z,20.60
2023-05-22T21:02:58.617Z,20.50
2023-05-22T21:07:00.456Z,20.50
2023-05-22T21:11:02.185Z,20.40
2023-05-22T21:15:04.389Z,20.40
2023-05-22T21:19:09.694Z,20.30
2023-05-22T21:23:11.564Z,20.30
2023-05-22T21:27:13.376Z,20.20
2023-05-22T21:31:15.156Z,20.10
2023-05-22T21:35:16.990Z,20.00
2023-05-22T21:39:18.696Z,19.90
2023-05-22T21:43:20.423Z,19.80
2023-05-22T21:47:22.372Z,19.80
2023-05-22T21:51:24.246Z,19.80
2023-05-22T21:55:26.001Z,19.80
2023-05-22T21:59:27.733Z,19.90
2023-05-22T22:03:29.596Z,19.90
2023-05-22T22:07:31.430Z,20.00
2023-05-22T22:11:33.308Z,20.10
2023-05-22T22:15:36.691Z,20.00
2023-05-22T22:19:38.424Z,20.10
2023-05-22T22:23:40.617Z,20.10
2023-05-22T22:27:42.316Z,20.10
2023-05-22T22:31:44.158Z,20.10
2023-05-22T22:35:45.958Z,20.00
2023-05-22T22:39:48.135Z,20.00
2023-05-22T22:43:50.054Z,19.90
2023-05-22T22:47:52.745Z,19.90
2023-05-22T22:51:54.805Z,19.80
2023-05-22T22:55:56.863Z,19.70
2023-05-22T22:59:58.767Z,19.70
2023-05-22T23:04:00.633Z,19.60
2023-05-22T23:08:02.446Z,19.50
2023-05-22T23:12:06.406Z,19.30
2023-05-22T23:16:08.354Z,19.20
2023-05-22T23:20:10.883Z,19.10
2023-05-22T23:24:12.915Z,19.10
2023-05-22T23:28:14.741Z,19.10
2023-05-22T23:32:16.474Z,19.10
2023-05-22T23:36:18.596Z,19.20
2023-05-22T23:40:20.450Z,19.20
2023-05-22T23:44:22.185Z,19.20
2023-05-22T23:48:23.949Z,19.20
2023-05-22T23:52:26.552Z,19.30
2023-05-22T23:56:28.348Z,19.40
